Time;durP1;ratioP1;P1;durP2;ratioP2;P2;SDS_P1;SDS_P2;PMS_P1;PMS_P2;Temp;Humidity;BMP_temperature;BMP_pressure;BME280_temperature;BME280_humidity;BME280_pressure;Samples;Min_cycle;Max_cycle;Signal;HPM_P1;HPM_P2
2020/05/13 00:00:46;;;;;;;10.7;9.6;;;;;;;7.09;69.67969;94719.84;;;;
2020/05/13 00:01:54;;;;;;;10.7;9.6;;;;;;;7.09;69.67969;94719.84;;;;
2020/05/13 00:03:00;;;;;;;10.7;9.6;;;;;;;7.09;69.67969;94719.84;;;;
2020/05/13 00:04:11;;;;;;;10.7;9.6;;;;;;;7.09;69.67969;94719.84;;;;
2020/05/13 00:08:43;;;;;;;12;10;;;;;;;7.04;70.05273;94735.91;;;;
2020/05/13 00:09:52;;;;;;;12;10;;;;;;;7.04;70.05273;94735.91;;;;
2020/05/13 00:10:53;;;;;;;12;10;;;;;;;7.04;70.05273;94735.91;;;;
2020/05/13 00:12:55;;;;;;;12;10;;;;;;;7.04;70.05273;94735.91;;;;
2020/05/13 00:14:14;;;;;;;12;10;;;;;;;7.04;70.05273;94735.91;;;;
2020/05/13 00:15:21;;;;;;;12;10;;;;;;;7.04;70.05273;94735.91;;;;
2020/05/13 00:16:31;;;;;;;12;10;;;;;;;7.04;70.05273;94735.91;;;;
2020/05/13 00:17:41;;;;;;;12;10;;;;;;;7.04;70.05273;94735.91;;;;
2020/05/13 00:18:45;;;;;;;11.45;10.25;;;;;;;7.04;70.57324;94733.64;;;;
2020/05/13 00:19:50;;;;;;;11.45;10.25;;;;;;;7.04;70.57324;94733.64;;;;
2020/05/13 00:20:51;;;;;;;11.45;10.25;;;;;;;7.04;70.57324;94733.64;;;;
2020/05/13 00:21:52;;;;;;;11.45;10.25;;;;;;;7.04;70.57324;94733.64;;;;
2020/05/13 00:22:56;;;;;;;11.45;10.25;;;;;;;7.04;70.57324;94733.64;;;;
2020/05/13 00:23:57;;;;;;;11.45;10.25;;;;;;;7.04;70.57324;94733.64;;;;
2020/05/13 00:25:02;;;;;;;11.45;10.25;;;;;;;7.04;70.57324;94733.64;;;;
2020/05/13 00:26:07;;;;;;;11.45;10.25;;;;;;;7.04;70.57324;94733.64;;;;
2020/05/13 00:27:20;;;;;;;11.45;10.25;;;;;;;7.04;70.57324;94733.64;;;;
2020/05/13 00:28:25;;;;;;;10.35;9.25;;;;;;;7.01;70.91895;94737.72;;;;
2020/05/13 00:29:34;;;;;;;10.35;9.25;;;;;;;7.01;70.91895;94737.72;;;;
2020/05/13 00:30:50;;;;;;;10.35;9.25;;;;;;;7.01;70.91895;94737.72;;;;
2020/05/13 00:35:27;;;;;;;10.35;9.25;;;;;;;7.01;70.91895;94737.72;;;;
2020/05/13 00:36:28;;;;;;;10.35;9.25;;;;;;;7.01;70.91895;94737.72;;;;
2020/05/13 00:37:43;;;;;;;10.35;9.25;;;;;;;7.01;70.91895;94737.72;;;;
2020/05/13 00:38:50;;;;;;;10.35;9.25;;;;;;;7.01;70.91895;94737.72;;;;
2020/05/13 00:40:04;;;;;;;11.35;9.750001;;;;;;;7.01;71.17383;94712.22;;;;
2020/05/13 00:41:29;;;;;;;11.35;9.750001;;;;;;;7.01;71.17383;94712.22;;;;
2020/05/13 00:42:56;;;;;;;11.35;9.750001;;;;;;;7.01;71.17383;94712.22;;;;
2020/05/13 00:45:04;;;;;;;11.35;9.750001;;;;;;;7.01;71.17383;94712.22;;;;
2020/05/13 00:46:16;;;;;;;11.35;9.750001;;;;;;;7.01;71.17383;94712.22;;;;
2020/05/13 00:47:25;;;;;;;11.35;9.750001;;;;;;;7.01;71.17383;94712.22;;;;
2020/05/13 00:48:26;;;;;;;11.35;9.750001;;;;;;;7.01;71.17383;94712.22;;;;
2020/05/13 00:49:28;;;;;;;11.35;9.750001;;;;;;;7.01;71.17383;94712.22;;;;
2020/05/13 00:50:43;;;;;;;10.55;9.45;;;;;;;6.98;71.5625;94705.98;;;;
2020/05/13 00:51:49;;;;;;;10.55;9.45;;;;;;;6.98;71.5625;94705.98;;;;
2020/05/13 00:52:50;;;;;;;10.55;9.45;;;;;;;6.98;71.5625;94705.98;;;;
2020/05/13 00:54:33;;;;;;;10.55;9.45;;;;;;;6.98;71.5625;94705.98;;;;
2020/05/13 00:55:35;;;;;;;10.55;9.45;;;;;;;6.98;71.5625;94705.98;;;;
2020/05/13 00:56:46;;;;;;;10.55;9.45;;;;;;;6.98;71.5625;94705.98;;;;
2020/05/13 00:57:49;;;;;;;10.55;9.45;;;;;;;6.98;71.5625;94705.98;;;;
2020/05/13 00:58:51;;;;;;;10.55;9.45;;;;;;;6.98;71.5625;94705.98;;;;
2020/05/13 00:59:54;;;;;;;10.55;9.45;;;;;;;6.98;71.5625;94705.98;;;;
2020/05/13 01:00:55;;;;;;;11.55;9.849999;;;;;;;7.02;71.95117;94699.5;;;;
2020/05/13 01:03:16;;;;;;;11.55;9.849999;;;;;;;7.02;71.95117;94699.5;;;;
2020/05/13 01:04:16;;;;;;;11.55;9.849999;;;;;;;7.02;71.95117;94699.5;;;;
2020/05/13 01:05:17;;;;;;;11.55;9.849999;;;;;;;7.02;71.95117;94699.5;;;;
2020/05/13 01:06:18;;;;;;;11.55;9.849999;;;;;;;7.02;71.95117;94699.5;;;;
2020/05/13 01:07:24;;;;;;;11.55;9.849999;;;;;;;7.02;71.95117;94699.5;;;;
2020/05/13 01:08:34;;;;;;;11.55;9.849999;;;;;;;7.02;71.95117;94699.5;;;;
2020/05/13 01:09:34;;;;;;;11.55;9.849999;;;;;;;7.02;71.95117;94699.5;;;;
2020/05/13 01:10:46;;;;;;;13;10.35;;;;;;;6.97;72.46387;94703.81;;;;
2020/05/13 01:11:47;;;;;;;13;10.35;;;;;;;6.97;72.46387;94703.81;;;;
2020/05/13 01:12:58;;;;;;;13;10.35;;;;;;;6.97;72.46387;94703.81;;;;
2020/05/13 01:13:59;;;;;;;13;10.35;;;;;;;6.97;72.46387;94703.81;;;;
2020/05/13 01:14:59;;;;;;;13;10.35;;;;;;;6.97;72.46387;94703.81;;;;
2020/05/13 01:16:15;;;;;;;13;10.35;;;;;;;6.97;72.46387;94703.81;;;;
2020/05/13 01:17:18;;;;;;;13;10.35;;;;;;;6.97;72.46387;94703.81;;;;
2020/05/13 01:18:21;;;;;;;13;10.35;;;;;;;6.97;72.46387;94703.81;;;;
2020/05/13 01:19:37;;;;;;;13;10.35;;;;;;;6.97;72.46387;94703.81;;;;
2020/05/13 01:20:53;;;;;;;13;10.35;;;;;;;6.97;72.46387;94703.81;;;;
2020/05/13 01:25:31;;;;;;;11.75;10.3;;;;;;;6.9;72.95996;94693.28;;;;
2020/05/13 01:26:34;;;;;;;11.75;10.3;;;;;;;6.9;72.95996;94693.28;;;;
2020/05/13 01:27:42;;;;;;;11.75;10.3;;;;;;;6.9;72.95996;94693.28;;;;
2020/05/13 01:28:52;;;;;;;11.75;10.3;;;;;;;6.9;72.95996;94693.28;;;;
2020/05/13 01:29:53;;;;;;;11.75;10.3;;;;;;;6.9;72.95996;94693.28;;;;
2020/05/13 01:30:59;;;;;;;11.75;10.3;;;;;;;6.9;72.95996;94693.28;;;;
2020/05/13 01:32:06;;;;;;;13.2;10.65;;;;;;;6.77;73.30078;94674.67;;;;
2020/05/13 01:33:08;;;;;;;13.2;10.65;;;;;;;6.77;73.30078;94674.67;;;;
2020/05/13 01:35:00;;;;;;;13.2;10.65;;;;;;;6.77;73.30078;94674.67;;;;
2020/05/13 01:36:06;;;;;;;13.2;10.65;;;;;;;6.77;73.30078;94674.67;;;;
2020/05/13 01:37:11;;;;;;;13.2;10.65;;;;;;;6.77;73.30078;94674.67;;;;
2020/05/13 01:38:17;;;;;;;13.2;10.65;;;;;;;6.77;73.30078;94674.67;;;;
2020/05/13 01:39:32;;;;;;;13.2;10.65;;;;;;;6.77;73.30078;94674.67;;;;
2020/05/13 01:46:15;;;;;;;11.8;10.5;;;;;;;6.78;73.82227;94675.4;;;;
2020/05/13 01:47:32;;;;;;;11.8;10.5;;;;;;;6.78;73.82227;94675.4;;;;
2020/05/13 01:48:48;;;;;;;11.8;10.5;;;;;;;6.78;73.82227;94675.4;;;;
2020/05/13 01:49:51;;;;;;;11.8;10.5;;;;;;;6.78;73.82227;94675.4;;;;
2020/05/13 01:50:56;;;;;;;11.8;10.5;;;;;;;6.78;73.82227;94675.4;;;;
2020/05/13 01:52:22;;;;;;;11.8;10.5;;;;;;;6.78;73.82227;94675.4;;;;
2020/05/13 01:53:23;;;;;;;12.7;10.6;;;;;;;6.8;74.03711;94666.99;;;;
2020/05/13 01:54:26;;;;;;;12.7;10.6;;;;;;;6.8;74.03711;94666.99;;;;
2020/05/13 01:55:40;;;;;;;12.7;10.6;;;;;;;6.8;74.03711;94666.99;;;;
2020/05/13 01:56:40;;;;;;;12.7;10.6;;;;;;;6.8;74.03711;94666.99;;;;
2020/05/13 01:58:01;;;;;;;12.7;10.6;;;;;;;6.8;74.03711;94666.99;;;;
2020/05/13 01:59:09;;;;;;;12.7;10.6;;;;;;;6.8;74.03711;94666.99;;;;
2020/05/13 02:00:21;;;;;;;12.7;10.6;;;;;;;6.8;74.03711;94666.99;;;;
2020/05/13 02:01:49;;;;;;;12.7;10.6;;;;;;;6.8;74.03711;94666.99;;;;
2020/05/13 02:02:50;;;;;;;12.7;10.6;;;;;;;6.8;74.03711;94666.99;;;;
2020/05/13 02:04:05;;;;;;;12.7;10.6;;;;;;;6.8;74.03711;94666.99;;;;
2020/05/13 02:05:10;;;;;;;12.7;10.6;;;;;;;6.8;74.03711;94666.99;;;;
2020/05/13 02:06:20;;;;;;;12.7;10.6;;;;;;;6.8;74.03711;94666.99;;;;
2020/05/13 02:07:25;;;;;;;12.7;10.6;;;;;;;6.8;74.03711;94666.99;;;;
2020/05/13 02:08:28;;;;;;;12.7;10.6;;;;;;;6.8;74.03711;94666.99;;;;
2020/05/13 02:09:35;;;;;;;12.7;10.6;;;;;;;6.8;74.03711;94666.99;;;;
2020/05/13 02:11:28;;;;;;;12.7;10.6;;;;;;;6.8;74.03711;94666.99;;;;
2020/05/13 02:12:30;;;;;;;12.7;10.6;;;;;;;6.8;74.03711;94666.99;;;;
2020/05/13 02:14:17;;;;;;;12.7;10.6;;;;;;;6.8;74.03711;94666.99;;;;
2020/05/13 02:15:17;;;;;;;12.8;11.1;;;;;;;6.97;74.33008;94674.8;;;;
2020/05/13 02:16:32;;;;;;;12.8;11.1;;;;;;;6.97;74.33008;94674.8;;;;
2020/05/13 02:18:13;;;;;;;12.8;11.1;;;;;;;6.97;74.33008;94674.8;;;;
2020/05/13 02:19:20;;;;;;;12.8;11.1;;;;;;;6.97;74.33008;94674.8;;;;
2020/05/13 02:21:01;;;;;;;12.8;11.1;;;;;;;6.97;74.33008;94674.8;;;;
2020/05/13 02:22:13;;;;;;;12.8;11.1;;;;;;;6.97;74.33008;94674.8;;;;
2020/05/13 02:23:52;;;;;;;12.8;11.1;;;;;;;6.97;74.33008;94674.8;;;;
2020/05/13 02:24:53;;;;;;;12.8;11.1;;;;;;;6.97;74.33008;94674.8;;;;
2020/05/13 02:26:06;;;;;;;12.75;10.75;;;;;;;6.89;75.00781;94644.7;;;;
2020/05/13 02:27:08;;;;;;;12.75;10.75;;;;;;;6.89;75.00781;94644.7;;;;
2020/05/13 02:28:12;;;;;;;12.75;10.75;;;;;;;6.89;75.00781;94644.7;;;;
2020/05/13 02:29:53;;;;;;;12.75;10.75;;;;;;;6.89;75.00781;94644.7;;;;
2020/05/13 02:30:57;;;;;;;12.75;10.75;;;;;;;6.89;75.00781;94644.7;;;;
2020/05/13 02:37:15;;;;;;;12.35;10.5;;;;;;;6.78;75.54004;94663.7;;;;
2020/05/13 02:38:23;;;;;;;12.35;10.5;;;;;;;6.78;75.54004;94663.7;;;;
2020/05/13 02:39:30;;;;;;;12.35;10.5;;;;;;;6.78;75.54004;94663.7;;;;
2020/05/13 02:40:35;;;;;;;12.35;10.5;;;;;;;6.78;75.54004;94663.7;;;;
2020/05/13 02:42:41;;;;;;;12.35;10.5;;;;;;;6.78;75.54004;94663.7;;;;
2020/05/13 02:43:42;;;;;;;12.35;10.5;;;;;;;6.78;75.54004;94663.7;;;;
2020/05/13 02:44:43;;;;;;;12.35;10.5;;;;;;;6.78;75.54004;94663.7;;;;
2020/05/13 02:45:43;;;;;;;12.35;10.5;;;;;;;6.78;75.54004;94663.7;;;;
2020/05/13 02:46:44;;;;;;;15.25;11;;;;;;;6.77;75.83496;94662.08;;;;
2020/05/13 02:47:47;;;;;;;15.25;11;;;;;;;6.77;75.83496;94662.08;;;;
2020/05/13 02:48:52;;;;;;;15.25;11;;;;;;;6.77;75.83496;94662.08;;;;
2020/05/13 02:50:00;;;;;;;15.25;11;;;;;;;6.77;75.83496;94662.08;;;;
2020/05/13 02:51:09;;;;;;;15.25;11;;;;;;;6.77;75.83496;94662.08;;;;
2020/05/13 02:52:14;;;;;;;15.25;11;;;;;;;6.77;75.83496;94662.08;;;;
2020/05/13 02:53:36;;;;;;;15.25;11;;;;;;;6.77;75.83496;94662.08;;;;
2020/05/13 02:54:36;;;;;;;15.25;11;;;;;;;6.77;75.83496;94662.08;;;;
2020/05/13 02:55:40;;;;;;;15.25;11;;;;;;;6.77;75.83496;94662.08;;;;
2020/05/13 02:56:47;;;;;;;15.25;11;;;;;;;6.77;75.83496;94662.08;;;;
2020/05/13 02:57:59;;;;;;;12.7;10.75;;;;;;;6.67;76.07129;94662.75;;;;
2020/05/13 02:59:30;;;;;;;12.7;10.75;;;;;;;6.67;76.07129;94662.75;;;;
2020/05/13 03:00:32;;;;;;;12.7;10.75;;;;;;;6.67;76.07129;94662.75;;;;
2020/05/13 03:01:33;;;;;;;12.7;10.75;;;;;;;6.67;76.07129;94662.75;;;;
2020/05/13 03:02:41;;;;;;;12.7;10.75;;;;;;;6.67;76.07129;94662.75;;;;
2020/05/13 03:03:42;;;;;;;12.7;10.75;;;;;;;6.67;76.07129;94662.75;;;;
2020/05/13 03:04:49;;;;;;;12.7;10.75;;;;;;;6.67;76.07129;94662.75;;;;
2020/05/13 03:06:56;;;;;;;12.7;10.75;;;;;;;6.67;76.07129;94662.75;;;;
2020/05/13 03:08:04;;;;;;;14.2;11.7;;;;;;;6.66;76.33594;94653.88;;;;
2020/05/13 03:09:23;;;;;;;14.2;11.7;;;;;;;6.66;76.33594;94653.88;;;;
2020/05/13 03:10:24;;;;;;;14.2;11.7;;;;;;;6.66;76.33594;94653.88;;;;
2020/05/13 03:15:55;;;;;;;14.2;11.7;;;;;;;6.66;76.33594;94653.88;;;;
2020/05/13 03:16:56;;;;;;;14.2;11.7;;;;;;;6.66;76.33594;94653.88;;;;
2020/05/13 03:17:58;;;;;;;14.2;11.7;;;;;;;6.66;76.33594;94653.88;;;;
2020/05/13 03:18:59;;;;;;;13.3;11.45;;;;;;;6.54;76.62012;94666.53;;;;
2020/05/13 03:19:59;;;;;;;13.3;11.45;;;;;;;6.54;76.62012;94666.53;;;;
2020/05/13 03:21:00;;;;;;;13.3;11.45;;;;;;;6.54;76.62012;94666.53;;;;
2020/05/13 03:22:00;;;;;;;13.3;11.45;;;;;;;6.54;76.62012;94666.53;;;;
2020/05/13 03:23:01;;;;;;;13.3;11.45;;;;;;;6.54;76.62012;94666.53;;;;
2020/05/13 03:24:07;;;;;;;13.3;11.45;;;;;;;6.54;76.62012;94666.53;;;;
2020/05/13 03:25:30;;;;;;;13.3;11.45;;;;;;;6.54;76.62012;94666.53;;;;
2020/05/13 03:26:43;;;;;;;13.3;11.45;;;;;;;6.54;76.62012;94666.53;;;;
2020/05/13 03:33:01;;;;;;;13.85;12.05;;;;;;;6.48;77.16113;94673.61;;;;
2020/05/13 03:34:16;;;;;;;13.85;12.05;;;;;;;6.48;77.16113;94673.61;;;;
2020/05/13 03:35:16;;;;;;;13.85;12.05;;;;;;;6.48;77.16113;94673.61;;;;
2020/05/13 03:36:17;;;;;;;13.85;12.05;;;;;;;6.48;77.16113;94673.61;;;;
2020/05/13 03:37:26;;;;;;;13.85;12.05;;;;;;;6.48;77.16113;94673.61;;;;
2020/05/13 03:38:34;;;;;;;13.85;12.05;;;;;;;6.48;77.16113;94673.61;;;;
2020/05/13 03:39:34;;;;;;;15.7;12.6;;;;;;;6.38;77.35449;94667.56;;;;
2020/05/13 03:40:35;;;;;;;15.7;12.6;;;;;;;6.38;77.35449;94667.56;;;;
2020/05/13 03:42:05;;;;;;;15.7;12.6;;;;;;;6.38;77.35449;94667.56;;;;
2020/05/13 03:43:09;;;;;;;15.7;12.6;;;;;;;6.38;77.35449;94667.56;;;;
2020/05/13 03:44:11;;;;;;;15.7;12.6;;;;;;;6.38;77.35449;94667.56;;;;
2020/05/13 03:45:12;;;;;;;15.7;12.6;;;;;;;6.38;77.35449;94667.56;;;;
2020/05/13 03:46:12;;;;;;;15.7;12.6;;;;;;;6.38;77.35449;94667.56;;;;
2020/05/13 03:47:13;;;;;;;15.7;12.6;;;;;;;6.38;77.35449;94667.56;;;;
2020/05/13 03:48:13;;;;;;;15.7;12.6;;;;;;;6.38;77.35449;94667.56;;;;
2020/05/13 03:49:14;;;;;;;15.7;12.6;;;;;;;6.38;77.35449;94667.56;;;;
2020/05/13 03:50:20;;;;;;;14.9;12.15;;;;;;;6.39;77.7793;94670.14;;;;
2020/05/13 03:51:29;;;;;;;14.9;12.15;;;;;;;6.39;77.7793;94670.14;;;;
2020/05/13 03:52:43;;;;;;;14.9;12.15;;;;;;;6.39;77.7793;94670.14;;;;
2020/05/13 03:53:52;;;;;;;14.9;12.15;;;;;;;6.39;77.7793;94670.14;;;;
2020/05/13 03:55:03;;;;;;;14.9;12.15;;;;;;;6.39;77.7793;94670.14;;;;
2020/05/13 03:56:04;;;;;;;14.9;12.15;;;;;;;6.39;77.7793;94670.14;;;;
2020/05/13 03:57:10;;;;;;;14.9;12.15;;;;;;;6.39;77.7793;94670.14;;;;
2020/05/13 03:58:13;;;;;;;14.9;12.15;;;;;;;6.39;77.7793;94670.14;;;;
2020/05/13 03:59:14;;;;;;;14.9;12.15;;;;;;;6.39;77.7793;94670.14;;;;
2020/05/13 04:00:14;;;;;;;14.9;12.15;;;;;;;6.39;77.7793;94670.14;;;;
2020/05/13 04:01:25;;;;;;;16.15;12.05;;;;;;;6.47;77.99414;94667.14;;;;
2020/05/13 04:02:54;;;;;;;16.15;12.05;;;;;;;6.47;77.99414;94667.14;;;;
2020/05/13 04:04:34;;;;;;;16.15;12.05;;;;;;;6.47;77.99414;94667.14;;;;
2020/05/13 04:05:43;;;;;;;16.15;12.05;;;;;;;6.47;77.99414;94667.14;;;;
2020/05/13 04:06:44;;;;;;;16.15;12.05;;;;;;;6.47;77.99414;94667.14;;;;
2020/05/13 04:08:31;;;;;;;16.15;12.05;;;;;;;6.47;77.99414;94667.14;;;;
2020/05/13 04:09:32;;;;;;;16.15;12.05;;;;;;;6.47;77.99414;94667.14;;;;
2020/05/13 04:10:48;;;;;;;16.15;12.05;;;;;;;6.47;77.99414;94667.14;;;;
2020/05/13 04:11:49;;;;;;;15.55;13.1;;;;;;;6.72;78.30664;94683.83;;;;
2020/05/13 04:13:02;;;;;;;15.55;13.1;;;;;;;6.72;78.30664;94683.83;;;;
2020/05/13 04:14:15;;;;;;;15.55;13.1;;;;;;;6.72;78.30664;94683.83;;;;
2020/05/13 04:15:16;;;;;;;15.55;13.1;;;;;;;6.72;78.30664;94683.83;;;;
2020/05/13 04:16:44;;;;;;;15.55;13.1;;;;;;;6.72;78.30664;94683.83;;;;
2020/05/13 04:17:50;;;;;;;15.55;13.1;;;;;;;6.72;78.30664;94683.83;;;;
2020/05/13 04:18:51;;;;;;;15.55;13.1;;;;;;;6.72;78.30664;94683.83;;;;
2020/05/13 04:19:55;;;;;;;15.55;13.1;;;;;;;6.72;78.30664;94683.83;;;;
2020/05/13 04:20:55;;;;;;;15.55;13.1;;;;;;;6.72;78.30664;94683.83;;;;
2020/05/13 04:21:56;;;;;;;13.8;12.3;;;;;;;6.94;78.49219;94694.06;;;;
2020/05/13 04:23:18;;;;;;;13.8;12.3;;;;;;;6.94;78.49219;94694.06;;;;
2020/05/13 04:24:19;;;;;;;13.8;12.3;;;;;;;6.94;78.49219;94694.06;;;;
2020/05/13 04:25:27;;;;;;;13.8;12.3;;;;;;;6.94;78.49219;94694.06;;;;
2020/05/13 04:26:35;;;;;;;13.8;12.3;;;;;;;6.94;78.49219;94694.06;;;;
2020/05/13 04:27:35;;;;;;;13.8;12.3;;;;;;;6.94;78.49219;94694.06;;;;
2020/05/13 04:28:58;;;;;;;13.8;12.3;;;;;;;6.94;78.49219;94694.06;;;;
2020/05/13 04:29:58;;;;;;;13.8;12.3;;;;;;;6.94;78.49219;94694.06;;;;
2020/05/13 04:31:05;;;;;;;13.8;12.3;;;;;;;6.94;78.49219;94694.06;;;;
2020/05/13 04:32:12;;;;;;;13.8;12.3;;;;;;;6.94;78.49219;94694.06;;;;
2020/05/13 04:33:13;;;;;;;13.7;11.35;;;;;;;7.24;78.69727;94702.8;;;;
2020/05/13 04:34:40;;;;;;;13.7;11.35;;;;;;;7.24;78.69727;94702.8;;;;
2020/05/13 04:35:41;;;;;;;13.7;11.35;;;;;;;7.24;78.69727;94702.8;;;;
2020/05/13 04:36:42;;;;;;;13.7;11.35;;;;;;;7.24;78.69727;94702.8;;;;
2020/05/13 04:37:44;;;;;;;13.7;11.35;;;;;;;7.24;78.69727;94702.8;;;;
2020/05/13 04:39:04;;;;;;;13.7;11.35;;;;;;;7.24;78.69727;94702.8;;;;
2020/05/13 04:40:15;;;;;;;13.7;11.35;;;;;;;7.24;78.69727;94702.8;;;;
2020/05/13 04:41:59;;;;;;;13.7;11.35;;;;;;;7.24;78.69727;94702.8;;;;
2020/05/13 04:43:55;;;;;;;13;11.6;;;;;;;7.37;78.75098;94723.67;;;;
2020/05/13 04:46:08;;;;;;;13;11.6;;;;;;;7.37;78.75098;94723.67;;;;
2020/05/13 04:47:38;;;;;;;13;11.6;;;;;;;7.37;78.75098;94723.67;;;;
2020/05/13 04:48:45;;;;;;;13;11.6;;;;;;;7.37;78.75098;94723.67;;;;
2020/05/13 04:49:47;;;;;;;13;11.6;;;;;;;7.37;78.75098;94723.67;;;;
2020/05/13 04:50:48;;;;;;;13;11.6;;;;;;;7.37;78.75098;94723.67;;;;
2020/05/13 04:51:50;;;;;;;13;11.6;;;;;;;7.37;78.75098;94723.67;;;;
2020/05/13 04:52:50;;;;;;;13;11.6;;;;;;;7.37;78.75098;94723.67;;;;
2020/05/13 04:53:51;;;;;;;14.1;12.55;;;;;;;7.43;79.0498;94734.81;;;;
2020/05/13 04:54:51;;;;;;;14.1;12.55;;;;;;;7.43;79.0498;94734.81;;;;
2020/05/13 04:55:52;;;;;;;14.1;12.55;;;;;;;7.43;79.0498;94734.81;;;;
2020/05/13 04:56:55;;;;;;;14.1;12.55;;;;;;;7.43;79.0498;94734.81;;;;
2020/05/13 04:57:55;;;;;;;14.1;12.55;;;;;;;7.43;79.0498;94734.81;;;;
2020/05/13 04:58:57;;;;;;;14.1;12.55;;;;;;;7.43;79.0498;94734.81;;;;
2020/05/13 05:00:06;;;;;;;14.1;12.55;;;;;;;7.43;79.0498;94734.81;;;;
2020/05/13 05:01:07;;;;;;;14.1;12.55;;;;;;;7.43;79.0498;94734.81;;;;
2020/05/13 05:02:07;;;;;;;14.1;12.55;;;;;;;7.43;79.0498;94734.81;;;;
2020/05/13 05:03:08;;;;;;;14.1;12.55;;;;;;;7.43;79.0498;94734.81;;;;
2020/05/13 05:04:11;;;;;;;14.1;12.55;;;;;;;7.43;79.0498;94734.81;;;;
2020/05/13 05:05:19;;;;;;;16.2;12.85;;;;;;;7.42;79.20508;94736.39;;;;
2020/05/13 05:06:19;;;;;;;16.2;12.85;;;;;;;7.42;79.20508;94736.39;;;;
2020/05/13 05:07:20;;;;;;;16.2;12.85;;;;;;;7.42;79.20508;94736.39;;;;
2020/05/13 05:08:20;;;;;;;16.2;12.85;;;;;;;7.42;79.20508;94736.39;;;;
2020/05/13 05:09:29;;;;;;;16.2;12.85;;;;;;;7.42;79.20508;94736.39;;;;
2020/05/13 05:10:30;;;;;;;16.2;12.85;;;;;;;7.42;79.20508;94736.39;;;;
2020/05/13 05:11:30;;;;;;;16.2;12.85;;;;;;;7.42;79.20508;94736.39;;;;
2020/05/13 05:12:32;;;;;;;16.2;12.85;;;;;;;7.42;79.20508;94736.39;;;;
2020/05/13 05:13:32;;;;;;;16.2;12.85;;;;;;;7.42;79.20508;94736.39;;;;
2020/05/13 05:14:35;;;;;;;16.2;12.85;;;;;;;7.42;79.20508;94736.39;;;;
2020/05/13 05:15:38;;;;;;;15.25;12.35;;;;;;;7.5;79.65527;94723.99;;;;
2020/05/13 05:16:43;;;;;;;15.25;12.35;;;;;;;7.5;79.65527;94723.99;;;;
2020/05/13 05:17:44;;;;;;;15.25;12.35;;;;;;;7.5;79.65527;94723.99;;;;
2020/05/13 05:18:44;;;;;;;15.25;12.35;;;;;;;7.5;79.65527;94723.99;;;;
2020/05/13 05:19:46;;;;;;;15.25;12.35;;;;;;;7.5;79.65527;94723.99;;;;
2020/05/13 05:20:53;;;;;;;15.25;12.35;;;;;;;7.5;79.65527;94723.99;;;;
2020/05/13 05:22:05;;;;;;;15.25;12.35;;;;;;;7.5;79.65527;94723.99;;;;
2020/05/13 05:23:07;;;;;;;15.25;12.35;;;;;;;7.5;79.65527;94723.99;;;;
2020/05/13 05:25:13;;;;;;;15.25;12.35;;;;;;;7.5;79.65527;94723.99;;;;
2020/05/13 05:26:15;;;;;;;15.15;12.8;;;;;;;7.68;79.84766;94687.22;;;;
2020/05/13 05:27:16;;;;;;;15.15;12.8;;;;;;;7.68;79.84766;94687.22;;;;
2020/05/13 05:28:17;;;;;;;15.15;12.8;;;;;;;7.68;79.84766;94687.22;;;;
2020/05/13 05:29:17;;;;;;;15.15;12.8;;;;;;;7.68;79.84766;94687.22;;;;
2020/05/13 05:30:22;;;;;;;15.15;12.8;;;;;;;7.68;79.84766;94687.22;;;;
2020/05/13 05:35:01;;;;;;;15.15;12.8;;;;;;;7.68;79.84766;94687.22;;;;
2020/05/13 05:36:03;;;;;;;15.9;12.35;;;;;;;8.18;79.90723;94702.76;;;;
2020/05/13 05:37:07;;;;;;;15.9;12.35;;;;;;;8.18;79.90723;94702.76;;;;
2020/05/13 05:38:09;;;;;;;15.9;12.35;;;;;;;8.18;79.90723;94702.76;;;;
2020/05/13 05:39:10;;;;;;;15.9;12.35;;;;;;;8.18;79.90723;94702.76;;;;
2020/05/13 05:40:17;;;;;;;15.9;12.35;;;;;;;8.18;79.90723;94702.76;;;;
2020/05/13 05:41:18;;;;;;;15.9;12.35;;;;;;;8.18;79.90723;94702.76;;;;
2020/05/13 05:42:18;;;;;;;15.9;12.35;;;;;;;8.18;79.90723;94702.76;;;;
2020/05/13 05:43:21;;;;;;;15.9;12.35;;;;;;;8.18;79.90723;94702.76;;;;
2020/05/13 05:44:22;;;;;;;15.9;12.35;;;;;;;8.18;79.90723;94702.76;;;;
2020/05/13 05:45:23;;;;;;;15.9;12.35;;;;;;;8.18;79.90723;94702.76;;;;
2020/05/13 05:46:23;;;;;;;15.9;12.35;;;;;;;8.18;79.90723;94702.76;;;;
2020/05/13 05:47:24;;;;;;;14.05;11.9;;;;;;;8.39;79.75586;94707.54;;;;
2020/05/13 05:48:24;;;;;;;14.05;11.9;;;;;;;8.39;79.75586;94707.54;;;;
2020/05/13 05:49:25;;;;;;;14.05;11.9;;;;;;;8.39;79.75586;94707.54;;;;
2020/05/13 05:50:25;;;;;;;14.05;11.9;;;;;;;8.39;79.75586;94707.54;;;;
2020/05/13 05:51:26;;;;;;;14.05;11.9;;;;;;;8.39;79.75586;94707.54;;;;
2020/05/13 05:52:28;;;;;;;14.05;11.9;;;;;;;8.39;79.75586;94707.54;;;;
2020/05/13 05:53:28;;;;;;;14.05;11.9;;;;;;;8.39;79.75586;94707.54;;;;
2020/05/13 05:54:31;;;;;;;14.05;11.9;;;;;;;8.39;79.75586;94707.54;;;;
2020/05/13 05:55:31;;;;;;;14.05;11.9;;;;;;;8.39;79.75586;94707.54;;;;
2020/05/13 05:56:32;;;;;;;14.05;11.9;;;;;;;8.39;79.75586;94707.54;;;;
2020/05/13 05:57:33;;;;;;;14.75;12.35;;;;;;;8.65;79.64355;94747.41;;;;
2020/05/13 05:58:33;;;;;;;14.75;12.35;;;;;;;8.65;79.64355;94747.41;;;;
2020/05/13 05:59:37;;;;;;;14.75;12.35;;;;;;;8.65;79.64355;94747.41;;;;
2020/05/13 06:00:38;;;;;;;14.75;12.35;;;;;;;8.65;79.64355;94747.41;;;;
2020/05/13 06:01:42;;;;;;;14.75;12.35;;;;;;;8.65;79.64355;94747.41;;;;
2020/05/13 06:02:42;;;;;;;14.75;12.35;;;;;;;8.65;79.64355;94747.41;;;;
2020/05/13 06:03:43;;;;;;;14.75;12.35;;;;;;;8.65;79.64355;94747.41;;;;
2020/05/13 06:04:50;;;;;;;14.75;12.35;;;;;;;8.65;79.64355;94747.41;;;;
2020/05/13 06:05:50;;;;;;;14.75;12.35;;;;;;;8.65;79.64355;94747.41;;;;
2020/05/13 06:06:51;;;;;;;14.75;12.35;;;;;;;8.65;79.64355;94747.41;;;;
2020/05/13 06:07:53;;;;;;;13.7;12.25;;;;;;;8.86;79.67188;94703.17;;;;
2020/05/13 06:08:53;;;;;;;13.7;12.25;;;;;;;8.86;79.67188;94703.17;;;;
2020/05/13 06:09:54;;;;;;;13.7;12.25;;;;;;;8.86;79.67188;94703.17;;;;
2020/05/13 06:10:56;;;;;;;13.7;12.25;;;;;;;8.86;79.67188;94703.17;;;;
2020/05/13 06:11:56;;;;;;;13.7;12.25;;;;;;;8.86;79.67188;94703.17;;;;
2020/05/13 06:13:01;;;;;;;13.7;12.25;;;;;;;8.86;79.67188;94703.17;;;;
2020/05/13 06:14:02;;;;;;;13.7;12.25;;;;;;;8.86;79.67188;94703.17;;;;
2020/05/13 06:15:02;;;;;;;13.7;12.25;;;;;;;8.86;79.67188;94703.17;;;;
2020/05/13 06:16:03;;;;;;;13.7;12.25;;;;;;;8.86;79.67188;94703.17;;;;
2020/05/13 06:17:05;;;;;;;13.7;12.25;;;;;;;8.86;79.67188;94703.17;;;;
2020/05/13 06:18:10;;;;;;;13.7;12.25;;;;;;;8.86;79.67188;94703.17;;;;
2020/05/13 06:19:13;;;;;;;15.6;13.2;;;;;;;9.68;78.60645;94708.44;;;;
2020/05/13 06:20:14;;;;;;;15.6;13.2;;;;;;;9.68;78.60645;94708.44;;;;
2020/05/13 06:21:14;;;;;;;15.6;13.2;;;;;;;9.68;78.60645;94708.44;;;;
2020/05/13 06:22:15;;;;;;;15.6;13.2;;;;;;;9.68;78.60645;94708.44;;;;
2020/05/13 06:23:17;;;;;;;15.6;13.2;;;;;;;9.68;78.60645;94708.44;;;;
2020/05/13 06:24:17;;;;;;;15.6;13.2;;;;;;;9.68;78.60645;94708.44;;;;
2020/05/13 06:25:18;;;;;;;15.6;13.2;;;;;;;9.68;78.60645;94708.44;;;;
2020/05/13 06:26:19;;;;;;;15.6;13.2;;;;;;;9.68;78.60645;94708.44;;;;
2020/05/13 06:27:19;;;;;;;15.6;13.2;;;;;;;9.68;78.60645;94708.44;;;;
2020/05/13 06:28:19;;;;;;;15.6;13.2;;;;;;;9.68;78.60645;94708.44;;;;
2020/05/13 06:29:22;;;;;;;14.95;12.25;;;;;;;10.33;77.78223;94687.08;;;;
2020/05/13 06:30:22;;;;;;;14.95;12.25;;;;;;;10.33;77.78223;94687.08;;;;
2020/05/13 06:31:23;;;;;;;14.95;12.25;;;;;;;10.33;77.78223;94687.08;;;;
2020/05/13 06:32:23;;;;;;;14.95;12.25;;;;;;;10.33;77.78223;94687.08;;;;
2020/05/13 06:33:24;;;;;;;14.95;12.25;;;;;;;10.33;77.78223;94687.08;;;;
2020/05/13 06:34:51;;;;;;;14.95;12.25;;;;;;;10.33;77.78223;94687.08;;;;
2020/05/13 06:35:52;;;;;;;14.95;12.25;;;;;;;10.33;77.78223;94687.08;;;;
2020/05/13 06:36:52;;;;;;;14.95;12.25;;;;;;;10.33;77.78223;94687.08;;;;
2020/05/13 06:37:53;;;;;;;14.95;12.25;;;;;;;10.33;77.78223;94687.08;;;;
2020/05/13 06:38:54;;;;;;;14.95;12.25;;;;;;;10.33;77.78223;94687.08;;;;
2020/05/13 06:39:55;;;;;;;14.45;12.6;;;;;;;10.9;76.91992;94719.57;;;;
2020/05/13 06:40:56;;;;;;;14.45;12.6;;;;;;;10.9;76.91992;94719.57;;;;
2020/05/13 06:41:56;;;;;;;14.45;12.6;;;;;;;10.9;76.91992;94719.57;;;;
2020/05/13 06:42:57;;;;;;;14.45;12.6;;;;;;;10.9;76.91992;94719.57;;;;
2020/05/13 06:43:57;;;;;;;14.45;12.6;;;;;;;10.9;76.91992;94719.57;;;;
2020/05/13 06:44:59;;;;;;;14.45;12.6;;;;;;;10.9;76.91992;94719.57;;;;
2020/05/13 06:45:59;;;;;;;14.45;12.6;;;;;;;10.9;76.91992;94719.57;;;;
2020/05/13 06:47:00;;;;;;;14.45;12.6;;;;;;;10.9;76.91992;94719.57;;;;
2020/05/13 06:48:00;;;;;;;14.45;12.6;;;;;;;10.9;76.91992;94719.57;;;;
2020/05/13 06:49:01;;;;;;;14.45;12.6;;;;;;;10.9;76.91992;94719.57;;;;
2020/05/13 06:50:09;;;;;;;14.45;12.6;;;;;;;10.9;76.91992;94719.57;;;;
2020/05/13 06:51:27;;;;;;;13.85;12.25;;;;;;;10.91;76.94629;94714.33;;;;
2020/05/13 06:52:42;;;;;;;13.85;12.25;;;;;;;10.91;76.94629;94714.33;;;;
2020/05/13 06:53:57;;;;;;;13.85;12.25;;;;;;;10.91;76.94629;94714.33;;;;
2020/05/13 07:00:41;;;;;;;13.85;12.25;;;;;;;10.91;76.94629;94714.33;;;;
2020/05/13 07:02:05;;;;;;;14.5;12.55;;;;;;;10.78;77.08203;94721.03;;;;
2020/05/13 07:18:55;;;;;;;15.35;13.2;;;;;;;10.72;77.57227;94760.79;;;;
2020/05/13 07:20:02;;;;;;;15.35;13.2;;;;;;;10.72;77.57227;94760.79;;;;
2020/05/13 07:21:02;;;;;;;15.35;13.2;;;;;;;10.72;77.57227;94760.79;;;;
2020/05/13 07:22:03;;;;;;;15.35;13.2;;;;;;;10.72;77.57227;94760.79;;;;
2020/05/13 07:23:04;;;;;;;16.3;14.45;;;;;;;10.84;77.44434;94742.58;;;;